Time;durP1;ratioP1;P1;durP2;ratioP2;P2;SDS_P1;SDS_P2;PMS_P1;PMS_P2;Temp;Humidity;BMP_temperature;BMP_pressure;BME280_temperature;BME280_humidity;BME280_pressure;Samples;Min_cycle;Max_cycle;Signal;HPM_P1;HPM_P2
2022/10/26 00:01:48;;;;;;;;;;;11.80;99.90;;;;;;12515728;28;19932;-38
2022/10/26 00:07:50;;;;;;;;;;;11.60;99.90;;;;;;12541761;28;19932;-38
2022/10/26 00:13:52;;;;;;;;;;;11.40;99.90;;;;;;12529554;28;19932;-38
2022/10/26 00:19:54;;;;;;;;;;;11.00;99.90;;;;;;12552889;28;19932;-38
2022/10/26 00:25:56;;;;;;;;;;;10.90;99.90;;;;;;12546148;28;20281;-38
2022/10/26 00:31:58;;;;;;;;;;;10.80;99.90;;;;;;12554431;28;19935;-38
2022/10/26 00:37:59;;;;;;;;;;;10.70;99.90;;;;;;12555017;28;19935;-38
2022/10/26 00:44:21;;;;;;;;;;;10.60;99.90;;;;;;12529769;28;20015;-38
2022/10/26 00:50:34;;;;;;;;;;;10.70;99.90;;;;;;12559671;28;20346;-38
2022/10/26 00:56:35;;;;;;;;;;;10.60;99.90;;;;;;12532255;28;19972;-38
2022/10/26 01:02:37;;;;;;;;;;;10.30;99.90;;;;;;12548920;28;19932;-38
2022/10/26 01:08:41;;;;;;;;;;;10.40;99.90;;;;;;12525020;28;19929;-38
2022/10/26 01:14:43;;;;;;;;;;;10.40;99.90;;;;;;12543288;28;20299;-38
2022/10/26 01:20:57;;;;;;;;;;;10.40;99.90;;;;;;12522116;28;20288;-39
2022/10/26 01:27:18;;;;;;;;;;;10.30;99.90;;;;;;12542753;28;19924;-38
2022/10/26 01:33:24;;;;;;;;;;;10.60;99.90;;;;;;12548026;28;20023;-38
2022/10/26 01:39:44;;;;;;;;;;;10.60;99.90;;;;;;12558304;28;19925;-38
2022/10/26 01:45:47;;;;;;;;;;;10.60;99.90;;;;;;12553135;28;20303;-39
2022/10/26 01:51:49;;;;;;;;;;;10.70;99.90;;;;;;12525380;28;19925;-38
2022/10/26 01:57:51;;;;;;;;;;;10.70;99.90;;;;;;12549198;28;19925;-38
2022/10/26 02:04:19;;;;;;;;;;;10.50;99.90;;;;;;12542506;28;19928;-38
2022/10/26 02:10:39;;;;;;;;;;;10.20;99.90;;;;;;12539871;28;19933;-38
2022/10/26 02:16:47;;;;;;;;;;;10.50;99.90;;;;;;12553420;28;19939;-38
2022/10/26 02:22:50;;;;;;;;;;;10.10;99.90;;;;;;12538419;28;20419;-38
2022/10/26 02:28:53;;;;;;;;;;;10.30;99.90;;;;;;12524875;28;19925;-38
2022/10/26 02:34:56;;;;;;;;;;;10.30;99.90;;;;;;12545699;28;19924;-38
2022/10/26 02:41:00;;;;;;;;;;;10.20;99.90;;;;;;12539838;28;19936;-37
2022/10/26 02:47:02;;;;;;;;;;;10.20;99.90;;;;;;12542387;28;20401;-38
2022/10/26 02:53:03;;;;;;;;;;;10.10;99.90;;;;;;12558898;28;19990;-38
2022/10/26 02:59:06;;;;;;;;;;;10.20;99.90;;;;;;12548845;28;20023;-38
2022/10/26 03:05:13;;;;;;;;;;;10.20;99.90;;;;;;12552763;28;19933;-38
2022/10/26 03:11:15;;;;;;;;;;;10.20;99.90;;;;;;12548784;28;19924;-38
2022/10/26 03:17:17;;;;;;;;;;;10.40;99.90;;;;;;12543294;28;19959;-38
2022/10/26 03:23:19;;;;;;;;;;;10.60;99.90;;;;;;12542533;28;19929;-38
2022/10/26 03:29:20;;;;;;;;;;;10.50;99.90;;;;;;12553384;28;19932;-39
2022/10/26 03:35:22;;;;;;;;;;;10.50;99.90;;;;;;12548972;28;19932;-38
2022/10/26 03:41:24;;;;;;;;;;;10.60;99.90;;;;;;12549119;28;20296;-38
2022/10/26 03:47:25;;;;;;;;;;;10.60;99.90;;;;;;12555911;28;19932;-38
2022/10/26 03:53:27;;;;;;;;;;;10.10;99.90;;;;;;12565221;28;19931;-38
2022/10/26 03:59:29;;;;;;;;;;;9.80;99.90;;;;;;12557580;28;20027;-38
2022/10/26 04:05:31;;;;;;;;;;;9.90;99.90;;;;;;12558135;28;19925;-38
2022/10/26 04:11:33;;;;;;;;;;;9.70;99.90;;;;;;12549027;28;19925;-38
2022/10/26 04:17:35;;;;;;;;;;;9.90;99.90;;;;;;12564362;28;19930;-38
2022/10/26 04:23:37;;;;;;;;;;;10.10;99.90;;;;;;12550734;28;19925;-38
2022/10/26 04:29:38;;;;;;;;;;;10.00;99.90;;;;;;12551600;28;19932;-38
2022/10/26 04:35:41;;;;;;;;;;;9.80;99.90;;;;;;12533615;28;19924;-38
2022/10/26 04:41:43;;;;;;;;;;;9.80;99.90;;;;;;12546417;28;19935;-39
2022/10/26 04:47:45;;;;;;;;;;;9.60;99.90;;;;;;12555064;28;20269;-38
2022/10/26 04:53:46;;;;;;;;;;;9.80;99.90;;;;;;12546888;28;20296;-38
2022/10/26 04:59:48;;;;;;;;;;;9.90;99.90;;;;;;12549512;28;19939;-38
2022/10/26 05:05:50;;;;;;;;;;;9.90;99.90;;;;;;12552732;28;20355;-38
2022/10/26 05:11:52;;;;;;;;;;;9.90;99.90;;;;;;12549320;28;19925;-38
2022/10/26 05:17:55;;;;;;;;;;;9.90;99.90;;;;;;12544914;28;19937;-38
2022/10/26 05:23:56;;;;;;;;;;;10.20;99.90;;;;;;12546827;28;19932;-38
2022/10/26 05:29:58;;;;;;;;;;;10.30;99.90;;;;;;12556784;28;19928;-39
2022/10/26 05:36:00;;;;;;;;;;;10.30;99.90;;;;;;12519751;28;19925;-38
2022/10/26 05:42:02;;;;;;;;;;;9.90;99.90;;;;;;12548758;28;19935;-38
2022/10/26 05:48:04;;;;;;;;;;;9.80;99.90;;;;;;12553900;28;20376;-38
2022/10/26 05:54:05;;;;;;;;;;;9.90;99.90;;;;;;12550486;28;19932;-38
2022/10/26 06:00:16;;;;;;;;;;;9.80;99.90;;;;;;12546445;28;19931;-38
2022/10/26 06:06:18;;;;;;;;;;;9.60;99.90;;;;;;12532951;28;19929;-39
2022/10/26 06:12:21;;;;;;;;;;;9.60;99.90;;;;;;12541521;28;19925;-38
2022/10/26 06:18:43;;;;;;;;;;;9.60;99.90;;;;;;12547170;28;19925;-38
2022/10/26 06:24:47;;;;;;;;;;;9.60;99.90;;;;;;12515220;28;19932;-39
2022/10/26 06:30:49;;;;;;;;;;;9.70;99.90;;;;;;12540313;28;19932;-38
2022/10/26 06:36:51;;;;;;;;;;;9.60;99.90;;;;;;12542200;28;19965;-38
2022/10/26 06:42:58;;;;;;;;;;;9.80;99.90;;;;;;12543107;28;19932;-38
2022/10/26 06:49:06;;;;;;;;;;;9.90;99.90;;;;;;12546676;28;20292;-38
2022/10/26 06:55:14;;;;;;;;;;;9.80;99.90;;;;;;12553147;28;20161;-38
2022/10/26 07:01:16;;;;;;;;;;;9.80;99.90;;;;;;12547621;28;19924;-38
2022/10/26 07:07:20;;;;;;;;;;;9.70;99.90;;;;;;12542251;28;19928;-38
2022/10/26 07:13:22;;;;;;;;;;;9.70;99.90;;;;;;12535333;28;19928;-38
2022/10/26 07:19:23;;;;;;;;;;;9.70;99.90;;;;;;12538254;28;19925;-38
2022/10/26 07:25:26;;;;;;;;;;;9.90;99.90;;;;;;12560999;28;19971;-38
2022/10/26 07:31:27;;;;;;;;;;;10.00;99.90;;;;;;12551384;28;20333;-38
2022/10/26 07:37:29;;;;;;;;;;;10.10;99.90;;;;;;12554068;28;19970;-38
2022/10/26 07:43:31;;;;;;;;;;;10.20;99.90;;;;;;12543903;28;19929;-38
2022/10/26 07:49:33;;;;;;;;;;;10.00;99.90;;;;;;12560539;28;19924;-39
2022/10/26 07:55:35;;;;;;;;;;;10.30;99.90;;;;;;12533567;28;19925;-38
2022/10/26 08:01:37;;;;;;;;;;;10.20;99.90;;;;;;12554650;28;19934;-38
2022/10/26 08:07:40;;;;;;;;;;;10.40;99.90;;;;;;12551508;28;20727;-38
2022/10/26 08:13:42;;;;;;;;;;;10.60;99.90;;;;;;12561197;28;19966;-38
2022/10/26 08:19:46;;;;;;;;;;;10.70;99.90;;;;;;12541354;28;19985;-38
2022/10/26 08:25:47;;;;;;;;;;;11.00;99.90;;;;;;12555768;28;21276;-38
2022/10/26 08:31:49;;;;;;;;;;;11.30;99.90;;;;;;12557286;28;20003;-39
2022/10/26 08:37:52;;;;;;;;;;;11.50;99.90;;;;;;12546324;28;20041;-39
2022/10/26 08:43:55;;;;;;;;;;;11.80;99.90;;;;;;12542019;28;20016;-38
2022/10/26 08:49:59;;;;;;;;;;;12.00;99.90;;;;;;12538906;28;20503;-38
2022/10/26 08:56:16;;;;;;;;;;;12.30;99.90;;;;;;12550069;28;20043;-38
2022/10/26 09:02:19;;;;;;;;;;;12.70;99.90;;;;;;12530561;28;19936;-38
2022/10/26 09:08:24;;;;;;;;;;;12.70;99.90;;;;;;12549710;28;20392;-38
2022/10/26 09:14:39;;;;;;;;;;;12.80;99.90;;;;;;12546168;28;20308;-38
2022/10/26 09:21:01;;;;;;;;;;;12.90;99.90;;;;;;12528330;28;19925;-39
2022/10/26 09:27:11;;;;;;;;;;;13.10;99.90;;;;;;12488292;28;19931;-38
2022/10/26 09:33:17;;;;;;;;;;;13.30;99.90;;;;;;12545001;28;19928;-38
2022/10/26 09:39:29;;;;;;;;;;;13.60;99.90;;;;;;12553474;28;20070;-38
2022/10/26 09:45:34;;;;;;;;;;;13.80;99.90;;;;;;12547808;28;19925;-38
2022/10/26 09:51:37;;;;;;;;;;;13.70;99.90;;;;;;12547391;28;19929;-38
2022/10/26 09:57:41;;;;;;;;;;;13.70;99.90;;;;;;12546196;28;20396;-38
2022/10/26 10:03:43;;;;;;;;;;;13.80;99.90;;;;;;12521421;28;19929;-39
2022/10/26 10:10:01;;;;;;;;;;;13.90;99.90;;;;;;12554084;28;19997;-39
2022/10/26 10:16:02;;;;;;;;;;;14.10;99.90;;;;;;12553464;28;19929;-39
2022/10/26 10:22:17;;;;;;;;;;;14.10;99.90;;;;;;12542350;28;19936;-39
2022/10/26 10:28:23;;;;;;;;;;;14.40;99.90;;;;;;12551130;28;20300;-39
2022/10/26 10:34:25;;;;;;;;;;;14.60;99.90;;;;;;12547862;28;19935;-39
2022/10/26 10:40:30;;;;;;;;;;;14.90;99.90;;;;;;12541134;28;19925;-39
2022/10/26 10:46:32;;;;;;;;;;;15.40;99.90;;;;;;12547697;28;20289;-39
2022/10/26 10:52:34;;;;;;;;;;;16.00;99.90;;;;;;12533664;28;20400;-40
2022/10/26 10:58:41;;;;;;;;;;;16.30;99.90;;;;;;12545097;28;19931;-39
2022/10/26 11:04:49;;;;;;;;;;;16.80;99.90;;;;;;12552100;28;19936;-40
2022/10/26 11:11:12;;;;;;;;;;;17.40;99.90;;;;;;12542472;28;20408;-39
2022/10/26 11:17:35;;;;;;;;;;;17.70;99.90;;;;;;12523335;28;19925;-41
2022/10/26 11:23:42;;;;;;;;;;;18.00;99.90;;;;;;12534611;28;20300;-39
2022/10/26 11:29:53;;;;;;;;;;;18.30;99.90;;;;;;12532194;28;19931;-40
2022/10/26 11:35:57;;;;;;;;;;;18.40;99.90;;;;;;12543483;28;19932;-39
2022/10/26 11:42:08;;;;;;;;;;;18.40;99.90;;;;;;12537089;28;20316;-41
2022/10/26 11:48:13;;;;;;;;;;;18.50;99.90;;;;;;12539864;28;20296;-39
2022/10/26 11:54:24;;;;;;;;;;;18.60;99.90;;;;;;12548851;28;19929;-41
2022/10/26 12:00:26;;;;;;;;;;;18.60;99.90;;;;;;12544807;28;19951;-39
2022/10/26 12:06:30;;;;;;;;;;;18.70;99.90;;;;;;12534352;28;19932;-40
2022/10/26 12:12:35;;;;;;;;;;;18.80;99.90;;;;;;12548545;28;19924;-39
2022/10/26 12:18:50;;;;;;;;;;;18.90;99.90;;;;;;12546421;28;19936;-40
2022/10/26 12:25:05;;;;;;;;;;;18.80;99.90;;;;;;12552138;28;19970;-39
2022/10/26 12:31:30;;;;;;;;;;;18.70;99.90;;;;;;12548607;28;19924;-40
2022/10/26 12:37:35;;;;;;;;;;;18.60;99.90;;;;;;12550695;28;20369;-39
2022/10/26 12:43:39;;;;;;;;;;;18.30;99.90;;;;;;12551952;28;19925;-39
2022/10/26 12:49:59;;;;;;;;;;;18.40;99.90;;;;;;12555388;28;19924;-39
2022/10/26 12:56:04;;;;;;;;;;;18.60;99.90;;;;;;12538934;28;20040;-39
2022/10/26 13:02:11;;;;;;;;;;;18.60;99.90;;;;;;12546010;28;19929;-39
2022/10/26 13:08:13;;;;;;;;;;;18.50;99.90;;;;;;12552335;28;19925;-39
2022/10/26 13:14:27;;;;;;;;;;;18.40;99.90;;;;;;12545694;28;19931;-39
2022/10/26 13:20:30;;;;;;;;;;;18.20;99.90;;;;;;12534147;28;19936;-39
2022/10/26 13:26:52;;;;;;;;;;;18.00;99.90;;;;;;12552351;28;19967;-39
2022/10/26 13:32:55;;;;;;;;;;;18.00;99.90;;;;;;12540996;28;20292;-39
2022/10/26 13:38:59;;;;;;;;;;;18.20;99.90;;;;;;12550880;28;19925;-39
2022/10/26 13:45:09;;;;;;;;;;;18.30;99.90;;;;;;12532204;28;19933;-39
2022/10/26 13:51:22;;;;;;;;;;;18.30;99.90;;;;;;12557178;28;20023;-38
2022/10/26 13:57:41;;;;;;;;;;;18.30;99.90;;;;;;12549635;28;20254;-39
2022/10/26 14:03:43;;;;;;;;;;;18.30;99.90;;;;;;12556120;28;19979;-39
2022/10/26 14:09:49;;;;;;;;;;;18.30;99.90;;;;;;12545910;28;20341;-39
2022/10/26 14:15:52;;;;;;;;;;;18.20;99.90;;;;;;12558022;28;20327;-39
2022/10/26 14:21:54;;;;;;;;;;;18.10;99.90;;;;;;12547551;28;19974;-39
2022/10/26 14:27:56;;;;;;;;;;;18.00;99.90;;;;;;12541353;28;20293;-39
2022/10/26 14:33:59;;;;;;;;;;;18.10;99.90;;;;;;12544382;28;19924;-38
2022/10/26 14:40:01;;;;;;;;;;;18.00;99.90;;;;;;12549188;28;19924;-39
2022/10/26 14:46:02;;;;;;;;;;;18.00;99.90;;;;;;12542094;28;19924;-39
2022/10/26 14:52:05;;;;;;;;;;;17.90;99.90;;;;;;12549990;28;19958;-38
2022/10/26 14:58:12;;;;;;;;;;;17.90;99.90;;;;;;12521812;28;19935;-39
2022/10/26 15:04:31;;;;;;;;;;;17.80;99.90;;;;;;12540113;28;19931;-39
2022/10/26 15:10:39;;;;;;;;;;;17.70;99.90;;;;;;12539157;28;20274;-38
2022/10/26 15:16:49;;;;;;;;;;;17.70;99.90;;;;;;12555145;28;19925;-38
2022/10/26 15:22:52;;;;;;;;;;;17.60;99.90;;;;;;12544017;28;19925;-39
2022/10/26 15:28:54;;;;;;;;;;;17.60;99.90;;;;;;12543626;28;19967;-39
2022/10/26 15:35:11;;;;;;;;;;;17.30;99.90;;;;;;12543203;28;19924;-39
2022/10/26 15:41:13;;;;;;;;;;;17.20;99.90;;;;;;12548065;28;19929;-39
2022/10/26 15:47:17;;;;;;;;;;;17.10;99.90;;;;;;12543900;28;19928;-39
2022/10/26 15:53:23;;;;;;;;;;;17.00;99.90;;;;;;12563054;28;19928;-39
2022/10/26 15:59:25;;;;;;;;;;;16.90;99.90;;;;;;12538381;28;19929;-39
2022/10/26 16:05:27;;;;;;;;;;;16.80;99.90;;;;;;12552235;28;19948;-39
2022/10/26 16:11:29;;;;;;;;;;;16.60;99.90;;;;;;12548810;28;20059;-38
2022/10/26 16:17:32;;;;;;;;;;;16.70;99.90;;;;;;12552925;28;19925;-39
2022/10/26 16:23:34;;;;;;;;;;;16.60;99.90;;;;;;12532503;28;19924;-38
2022/10/26 16:29:36;;;;;;;;;;;16.50;99.90;;;;;;12552180;28;19929;-39
2022/10/26 16:35:37;;;;;;;;;;;16.40;99.90;;;;;;12538785;28;20491;-38
2022/10/26 16:41:39;;;;;;;;;;;16.30;99.90;;;;;;12549271;28;20324;-39
2022/10/26 16:47:41;;;;;;;;;;;16.40;99.90;;;;;;12545276;28;19925;-40
2022/10/26 16:53:42;;;;;;;;;;;16.40;99.90;;;;;;12544569;28;19974;-39
2022/10/26 16:59:44;;;;;;;;;;;16.30;99.90;;;;;;12544448;28;19925;-39
2022/10/26 17:05:46;;;;;;;;;;;16.20;99.90;;;;;;12553244;28;20308;-39
2022/10/26 17:11:48;;;;;;;;;;;16.10;99.90;;;;;;12544546;28;19979;-39
2022/10/26 17:17:49;;;;;;;;;;;16.10;99.90;;;;;;12545831;28;19933;-38
2022/10/26 17:23:51;;;;;;;;;;;16.20;99.90;;;;;;12544498;28;20025;-39
2022/10/26 17:29:53;;;;;;;;;;;16.20;99.90;;;;;;12542861;28;19935;-39
2022/10/26 17:35:54;;;;;;;;;;;16.30;99.90;;;;;;12544959;28;19928;-39
2022/10/26 17:41:56;;;;;;;;;;;16.10;99.90;;;;;;12547076;28;19929;-39
2022/10/26 17:47:58;;;;;;;;;;;16.10;99.90;;;;;;12553905;28;19978;-39
2022/10/26 17:54:00;;;;;;;;;;;16.10;99.90;;;;;;12533075;28;19937;-38
2022/10/26 18:00:02;;;;;;;;;;;16.10;99.90;;;;;;12548612;28;19932;-38
2022/10/26 18:06:06;;;;;;;;;;;16.00;99.90;;;;;;12534289;28;19932;-39
2022/10/26 18:12:09;;;;;;;;;;;16.00;99.90;;;;;;12542155;28;19928;-39
2022/10/26 18:18:11;;;;;;;;;;;16.00;99.90;;;;;;12546282;28;19925;-39
2022/10/26 18:24:13;;;;;;;;;;;15.90;99.90;;;;;;12549841;28;19935;-38
2022/10/26 18:30:15;;;;;;;;;;;15.80;99.90;;;;;;12553108;28;19929;-38
2022/10/26 18:36:17;;;;;;;;;;;15.90;99.90;;;;;;12538540;28;20296;-39
2022/10/26 18:42:18;;;;;;;;;;;15.90;99.90;;;;;;12535822;28;20011;-39
2022/10/26 18:48:20;;;;;;;;;;;16.00;99.90;;;;;;12542395;28;19936;-39
2022/10/26 18:54:22;;;;;;;;;;;16.00;99.90;;;;;;12546713;28;20282;-40
2022/10/26 19:00:25;;;;;;;;;;;16.10;99.90;;;;;;12565571;28;19924;-39
2022/10/26 19:06:28;;;;;;;;;;;16.10;99.90;;;;;;12549953;28;19935;-38
2022/10/26 19:12:30;;;;;;;;;;;15.90;99.90;;;;;;12541990;28;19928;-38
2022/10/26 19:18:32;;;;;;;;;;;15.70;99.90;;;;;;12552276;28;19931;-38
2022/10/26 19:24:34;;;;;;;;;;;15.70;99.90;;;;;;12554683;28;20071;-39
2022/10/26 19:30:37;;;;;;;;;;;15.60;99.90;;;;;;12551379;28;19940;-38
2022/10/26 19:36:42;;;;;;;;;;;15.50;99.90;;;;;;12550625;28;19932;-38
2022/10/26 19:42:46;;;;;;;;;;;15.60;99.90;;;;;;12544146;28;19925;-39
2022/10/26 19:48:49;;;;;;;;;;;15.60;99.90;;;;;;12550914;28;20447;-38
2022/10/26 19:54:50;;;;;;;;;;;15.60;99.90;;;;;;12549201;28;20388;-38
2022/10/26 20:00:59;;;;;;;;;;;15.60;99.90;;;;;;12543752;28;19929;-38
2022/10/26 20:07:01;;;;;;;;;;;15.70;99.90;;;;;;12552898;28;19929;-39
2022/10/26 20:13:02;;;;;;;;;;;15.80;99.90;;;;;;12553091;28;19925;-39
2022/10/26 20:19:04;;;;;;;;;;;16.00;99.90;;;;;;12546244;28;19928;-39
2022/10/26 20:25:06;;;;;;;;;;;16.00;99.90;;;;;;12542619;28;19925;-39
2022/10/26 20:31:08;;;;;;;;;;;15.70;99.90;;;;;;12548389;28;20389;-39
2022/10/26 20:37:10;;;;;;;;;;;15.70;99.90;;;;;;12545581;28;19966;-39
2022/10/26 20:43:16;;;;;;;;;;;15.70;99.90;;;;;;12562710;28;19925;-39
2022/10/26 20:49:18;;;;;;;;;;;15.60;99.90;;;;;;12542856;28;20377;-40
2022/10/26 20:55:38;;;;;;;;;;;15.50;99.90;;;;;;12554954;28;20286;-39
2022/10/26 21:01:41;;;;;;;;;;;15.50;99.90;;;;;;12560100;28;19925;-38
2022/10/26 21:07:43;;;;;;;;;;;15.40;99.90;;;;;;12554357;28;19932;-39
2022/10/26 21:13:45;;;;;;;;;;;15.40;99.90;;;;;;12551643;28;20400;-39
2022/10/26 21:19:47;;;;;;;;;;;15.40;99.90;;;;;;12546369;28;19932;-38
2022/10/26 21:25:53;;;;;;;;;;;15.20;99.90;;;;;;12549160;28;19925;-39
2022/10/26 21:31:54;;;;;;;;;;;15.30;99.90;;;;;;12543043;28;19936;-38
2022/10/26 21:37:56;;;;;;;;;;;15.40;99.90;;;;;;12549160;28;19924;-38
2022/10/26 21:43:58;;;;;;;;;;;15.40;99.90;;;;;;12559207;28;19924;-39
2022/10/26 21:50:10;;;;;;;;;;;15.40;99.90;;;;;;12551918;28;20015;-38
2022/10/26 21:56:16;;;;;;;;;;;15.30;99.90;;;;;;12548889;28;19936;-39
2022/10/26 22:02:17;;;;;;;;;;;15.20;99.90;;;;;;12552749;28;20149;-39
2022/10/26 22:08:20;;;;;;;;;;;15.20;99.90;;;;;;12548962;28;20387;-39
2022/10/26 22:14:22;;;;;;;;;;;15.10;99.90;;;;;;12547723;28;19924;-38
2022/10/26 22:20:24;;;;;;;;;;;15.10;99.90;;;;;;12542995;28;20284;-39
2022/10/26 22:26:26;;;;;;;;;;;15.00;99.90;;;;;;12550554;28;20022;-38
2022/10/26 22:32:27;;;;;;;;;;;15.00;99.90;;;;;;12556301;28;19924;-39
2022/10/26 22:38:29;;;;;;;;;;;14.90;99.90;;;;;;12555408;28;19924;-38
2022/10/26 22:44:31;;;;;;;;;;;15.00;99.90;;;;;;12548765;28;20384;-38
2022/10/26 22:50:33;;;;;;;;;;;15.00;99.90;;;;;;12565661;28;19960;-38
2022/10/26 22:56:35;;;;;;;;;;;14.90;99.90;;;;;;12548396;28;19924;-39
2022/10/26 23:02:37;;;;;;;;;;;14.90;99.90;;;;;;12563366;28;19947;-38
2022/10/26 23:08:38;;;;;;;;;;;14.90;99.90;;;;;;12545110;28;19973;-39
2022/10/26 23:14:40;;;;;;;;;;;14.90;99.90;;;;;;12546918;28;19925;-38
2022/10/26 23:20:42;;;;;;;;;;;14.90;99.90;;;;;;12541931;28;20883;-40
2022/10/26 23:26:44;;;;;;;;;;;14.90;99.90;;;;;;12528138;28;19968;-38
2022/10/26 23:32:46;;;;;;;;;;;14.90;99.90;;;;;;12538297;28;19925;-41
2022/10/26 23:38:47;;;;;;;;;;;14.90;99.90;;;;;;12552314;28;20292;-39
2022/10/26 23:44:49;;;;;;;;;;;15.00;99.90;;;;;;12539414;28;19925;-38
2022/10/26 23:50:51;;;;;;;;;;;15.00;99.90;;;;;;12543360;28;19952;-38
2022/10/26 23:56:53;;;;;;;;;;;15.00;99.90;;;;;;12552890;28;20314;-39
